General Aviation Weather

Text Reports

Enter one or more of the following location identifiers separated by a space:

Zip Code, Four-Character ICAO or Three-Character IATA airport codes.

METAR - Aviation Routine Weather Report
KAAT - Alturas, California
Updated at 6:55 AM GMT on July 22, 2014 (11:55 PM PDT):
METAR KAAT 220655Z AUTO 15003KT 10SM CLR 13/11 A3017 RMK AO2 SLP179 T01280106 TSNO
TAF - Terminal Area Forecast
KAAT - Alturas, California
Updated at 6:55 AM GMT on July 22, 2014 (11:55 PM PDT):
No TAF is currently available for this location.
Decoded:
No decoded TAF is available.
PIREP - Pilot Weather Report
KAAT - Alturas, California
Updated at 6:55 AM GMT on July 22, 2014 (11:55 PM PDT):
No PIREP is currently available for this location.
AIRMET - Airmens Meteorological Information
KAAT - Alturas, California
Updated at 6:55 AM GMT on July 22, 2014 (11:55 PM PDT):
No AIRMET is currently available for this location.
SIGMET - Significant Meteorological Information
KAAT - Alturas, California
Updated at 6:55 AM GMT on July 22, 2014 (11:55 PM PDT):
No SIGMET is currently available for this location.
NOTAM - Notice to Airmen
KAAT - Alturas, California
Updated at 6:55 AM GMT on July 22, 2014 (11:55 PM PDT):
No NOTAM is currently available for this location.
Forecast Area
KAAT - Alturas, California
Updated at 6:55 AM GMT on July 22, 2014 (11:55 PM PDT):
No NOTAM is currently available for this location.
Aviation Weather Maps